sensor_id;sensor_type;location;lat;lon;timestamp;temperature;humidity
27226;DHT22;14732;51.074;3.788;2023-06-05T00:01:45;16.40;99.90
27226;DHT22;14732;51.074;3.788;2023-06-05T00:04:10;16.50;99.90
27226;DHT22;14732;51.074;3.788;2023-06-05T00:06:36;16.50;99.90
27226;DHT22;14732;51.074;3.788;2023-06-05T00:09:05;16.30;99.90
27226;DHT22;14732;51.074;3.788;2023-06-05T00:11:31;16.20;99.90
27226;DHT22;14732;51.074;3.788;2023-06-05T00:13:57;16.10;99.90
27226;DHT22;14732;51.074;3.788;2023-06-05T00:16:22;16.10;99.90
27226;DHT22;14732;51.074;3.788;2023-06-05T00:18:48;16.20;99.90
27226;DHT22;14732;51.074;3.788;2023-06-05T00:21:14;16.20;99.90
27226;DHT22;14732;51.074;3.788;2023-06-05T00:23:43;16.10;99.90
27226;DHT22;14732;51.074;3.788;2023-06-05T00:26:09;16.00;99.90
27226;DHT22;14732;51.074;3.788;2023-06-05T00:28:34;15.80;99.90
27226;DHT22;14732;51.074;3.788;2023-06-05T00:31:01;15.80;99.90
27226;DHT22;14732;51.074;3.788;2023-06-05T00:33:26;15.80;99.90
27226;DHT22;14732;51.074;3.788;2023-06-05T00:35:55;15.90;99.90
27226;DHT22;14732;51.074;3.788;2023-06-05T00:38:21;15.90;99.90
27226;DHT22;14732;51.074;3.788;2023-06-05T00:40:46;15.90;99.90
27226;DHT22;14732;51.074;3.788;2023-06-05T00:43:12;15.90;99.90
27226;DHT22;14732;51.074;3.788;2023-06-05T00:45:38;16.00;99.90
27226;DHT22;14732;51.074;3.788;2023-06-05T00:48:04;15.90;99.90
27226;DHT22;14732;51.074;3.788;2023-06-05T00:50:31;15.80;99.90
27226;DHT22;14732;51.074;3.788;2023-06-05T00:52:58;15.80;99.90
27226;DHT22;14732;51.074;3.788;2023-06-05T00:55:25;15.60;99.90
27226;DHT22;14732;51.074;3.788;2023-06-05T00:57:51;15.70;99.90
27226;DHT22;14732;51.074;3.788;2023-06-05T01:00:17;15.60;99.90
27226;DHT22;14732;51.074;3.788;2023-06-05T01:02:44;15.60;99.90
27226;DHT22;14732;51.074;3.788;2023-06-05T01:05:09;15.60;99.90
27226;DHT22;14732;51.074;3.788;2023-06-05T01:07:35;15.50;99.90
27226;DHT22;14732;51.074;3.788;2023-06-05T01:10:08;15.60;99.90
27226;DHT22;14732;51.074;3.788;2023-06-05T01:15:07;15.30;99.90
27226;DHT22;14732;51.074;3.788;2023-06-05T01:17:33;15.30;99.90
27226;DHT22;14732;51.074;3.788;2023-06-05T01:20:00;15.30;99.90
27226;DHT22;14732;51.074;3.788;2023-06-05T01:22:32;15.30;99.90
27226;DHT22;14732;51.074;3.788;2023-06-05T01:24:57;15.20;99.90
27226;DHT22;14732;51.074;3.788;2023-06-05T01:27:30;15.30;99.90
27226;DHT22;14732;51.074;3.788;2023-06-05T01:30:15;15.30;99.90
27226;DHT22;14732;51.074;3.788;2023-06-05T01:32:54;15.20;99.90
27226;DHT22;14732;51.074;3.788;2023-06-05T01:35:21;15.30;99.90
27226;DHT22;14732;51.074;3.788;2023-06-05T01:37:54;15.30;99.90
27226;DHT22;14732;51.074;3.788;2023-06-05T01:40:22;15.20;99.90
27226;DHT22;14732;51.074;3.788;2023-06-05T01:42:49;15.20;99.90
27226;DHT22;14732;51.074;3.788;2023-06-05T01:45:16;15.30;99.90
27226;DHT22;14732;51.074;3.788;2023-06-05T01:47:42;15.30;99.90
27226;DHT22;14732;51.074;3.788;2023-06-05T01:50:09;15.30;99.90
27226;DHT22;14732;51.074;3.788;2023-06-05T01:52:38;15.20;99.90
27226;DHT22;14732;51.074;3.788;2023-06-05T01:55:06;15.20;99.90
27226;DHT22;14732;51.074;3.788;2023-06-05T01:57:32;15.20;99.90
27226;DHT22;14732;51.074;3.788;2023-06-05T01:59:59;15.10;99.90
27226;DHT22;14732;51.074;3.788;2023-06-05T02:02:27;15.20;99.90
27226;DHT22;14732;51.074;3.788;2023-06-05T02:04:54;15.20;99.90
27226;DHT22;14732;51.074;3.788;2023-06-05T02:07:20;15.20;99.90
27226;DHT22;14732;51.074;3.788;2023-06-05T02:09:46;15.00;99.90
27226;DHT22;14732;51.074;3.788;2023-06-05T02:12:12;14.90;99.90
27226;DHT22;14732;51.074;3.788;2023-06-05T02:14:40;14.80;99.90
27226;DHT22;14732;51.074;3.788;2023-06-05T02:17:12;14.90;99.90
27226;DHT22;14732;51.074;3.788;2023-06-05T02:19:39;14.90;99.90
27226;DHT22;14732;51.074;3.788;2023-06-05T02:22:06;14.90;99.90
27226;DHT22;14732;51.074;3.788;2023-06-05T02:24:31;14.90;99.90
27226;DHT22;14732;51.074;3.788;2023-06-05T02:26:57;14.90;99.90
27226;DHT22;14732;51.074;3.788;2023-06-05T02:29:23;14.80;99.90
27226;DHT22;14732;51.074;3.788;2023-06-05T02:31:49;14.80;99.90
27226;DHT22;14732;51.074;3.788;2023-06-05T02:34:15;14.70;99.90
27226;DHT22;14732;51.074;3.788;2023-06-05T02:36:42;14.70;99.90
27226;DHT22;14732;51.074;3.788;2023-06-05T02:39:13;14.60;99.90
27226;DHT22;14732;51.074;3.788;2023-06-05T02:41:39;14.50;99.90
27226;DHT22;14732;51.074;3.788;2023-06-05T02:44:05;14.50;99.90
27226;DHT22;14732;51.074;3.788;2023-06-05T02:46:31;14.60;99.90
27226;DHT22;14732;51.074;3.788;2023-06-05T02:48:56;14.50;99.90
27226;DHT22;14732;51.074;3.788;2023-06-05T02:51:22;14.50;99.90
27226;DHT22;14732;51.074;3.788;2023-06-05T02:53:47;14.50;99.90
27226;DHT22;14732;51.074;3.788;2023-06-05T02:56:13;14.40;99.90
27226;DHT22;14732;51.074;3.788;2023-06-05T02:58:40;14.40;99.90
27226;DHT22;14732;51.074;3.788;2023-06-05T03:01:09;14.30;99.90
27226;DHT22;14732;51.074;3.788;2023-06-05T03:03:36;14.30;99.90
27226;DHT22;14732;51.074;3.788;2023-06-05T03:06:02;14.30;99.90
27226;DHT22;14732;51.074;3.788;2023-06-05T03:08:33;14.30;99.90
27226;DHT22;14732;51.074;3.788;2023-06-05T03:11:00;14.20;99.90
27226;DHT22;14732;51.074;3.788;2023-06-05T03:13:26;14.30;99.90
27226;DHT22;14732;51.074;3.788;2023-06-05T03:15:52;14.40;99.90
27226;DHT22;14732;51.074;3.788;2023-06-05T03:18:25;14.40;99.90
27226;DHT22;14732;51.074;3.788;2023-06-05T03:20:54;14.50;99.90
27226;DHT22;14732;51.074;3.788;2023-06-05T03:23:27;14.40;99.90
27226;DHT22;14732;51.074;3.788;2023-06-05T03:25:54;14.40;99.90
27226;DHT22;14732;51.074;3.788;2023-06-05T03:28:21;14.40;99.90
27226;DHT22;14732;51.074;3.788;2023-06-05T03:30:47;14.30;99.90
27226;DHT22;14732;51.074;3.788;2023-06-05T03:33:13;14.20;99.90
27226;DHT22;14732;51.074;3.788;2023-06-05T03:35:41;14.10;99.90
27226;DHT22;14732;51.074;3.788;2023-06-05T03:38:08;14.10;99.90
27226;DHT22;14732;51.074;3.788;2023-06-05T03:40:34;14.20;99.90
27226;DHT22;14732;51.074;3.788;2023-06-05T03:42:59;14.30;99.90
27226;DHT22;14732;51.074;3.788;2023-06-05T03:45:25;14.10;99.90
27226;DHT22;14732;51.074;3.788;2023-06-05T03:47:54;14.10;99.90
27226;DHT22;14732;51.074;3.788;2023-06-05T03:50:28;14.10;99.90
27226;DHT22;14732;51.074;3.788;2023-06-05T03:52:54;14.10;99.90
27226;DHT22;14732;51.074;3.788;2023-06-05T03:55:36;14.00;99.90
27226;DHT22;14732;51.074;3.788;2023-06-05T03:58:15;14.00;99.90
27226;DHT22;14732;51.074;3.788;2023-06-05T04:00:41;14.10;99.90
27226;DHT22;14732;51.074;3.788;2023-06-05T04:03:08;14.10;99.90
27226;DHT22;14732;51.074;3.788;2023-06-05T04:05:35;14.10;99.90
27226;DHT22;14732;51.074;3.788;2023-06-05T04:08:01;14.10;99.90
27226;DHT22;14732;51.074;3.788;2023-06-05T04:10:28;14.20;99.90
27226;DHT22;14732;51.074;3.788;2023-06-05T04:12:53;14.40;99.90
27226;DHT22;14732;51.074;3.788;2023-06-05T04:15:20;14.30;99.90
27226;DHT22;14732;51.074;3.788;2023-06-05T04:17:46;14.20;99.90
27226;DHT22;14732;51.074;3.788;2023-06-05T04:20:13;14.10;99.90
27226;DHT22;14732;51.074;3.788;2023-06-05T04:22:44;14.10;99.90
27226;DHT22;14732;51.074;3.788;2023-06-05T04:25:11;14.20;99.90
27226;DHT22;14732;51.074;3.788;2023-06-05T04:27:42;14.20;99.90
27226;DHT22;14732;51.074;3.788;2023-06-05T04:30:10;14.30;99.90
27226;DHT22;14732;51.074;3.788;2023-06-05T04:32:36;14.30;99.90
27226;DHT22;14732;51.074;3.788;2023-06-05T04:35:10;14.30;99.90
27226;DHT22;14732;51.074;3.788;2023-06-05T04:37:38;14.20;99.90
27226;DHT22;14732;51.074;3.788;2023-06-05T04:40:05;14.40;99.90
27226;DHT22;14732;51.074;3.788;2023-06-05T04:42:34;14.60;99.90
27226;DHT22;14732;51.074;3.788;2023-06-05T04:45:03;14.60;99.90
27226;DHT22;14732;51.074;3.788;2023-06-05T04:47:30;14.60;99.90
27226;DHT22;14732;51.074;3.788;2023-06-05T04:50:03;14.70;99.90
27226;DHT22;14732;51.074;3.788;2023-06-05T04:52:30;14.90;99.90
27226;DHT22;14732;51.074;3.788;2023-06-05T04:54:56;14.70;99.90
27226;DHT22;14732;51.074;3.788;2023-06-05T04:57:31;14.90;99.90
27226;DHT22;14732;51.074;3.788;2023-06-05T04:59:57;15.70;99.90
27226;DHT22;14732;51.074;3.788;2023-06-05T05:02:23;16.60;99.90
27226;DHT22;14732;51.074;3.788;2023-06-05T05:04:49;17.40;99.90
27226;DHT22;14732;51.074;3.788;2023-06-05T05:07:15;18.40;99.90
27226;DHT22;14732;51.074;3.788;2023-06-05T05:09:42;19.30;99.90
27226;DHT22;14732;51.074;3.788;2023-06-05T05:12:08;19.70;99.90
27226;DHT22;14732;51.074;3.788;2023-06-05T05:14:35;20.00;99.90
27226;DHT22;14732;51.074;3.788;2023-06-05T05:17:01;20.70;99.90
27226;DHT22;14732;51.074;3.788;2023-06-05T05:19:27;21.50;99.90
27226;DHT22;14732;51.074;3.788;2023-06-05T05:21:53;22.40;99.90
27226;DHT22;14732;51.074;3.788;2023-06-05T05:24:19;23.20;99.90
27226;DHT22;14732;51.074;3.788;2023-06-05T05:26:45;24.00;99.90
27226;DHT22;14732;51.074;3.788;2023-06-05T05:29:10;24.10;99.90
27226;DHT22;14732;51.074;3.788;2023-06-05T05:31:36;24.70;99.90
27226;DHT22;14732;51.074;3.788;2023-06-05T05:34:02;24.50;99.90
27226;DHT22;14732;51.074;3.788;2023-06-05T05:36:28;25.30;99.90
27226;DHT22;14732;51.074;3.788;2023-06-05T05:38:54;25.80;99.90
27226;DHT22;14732;51.074;3.788;2023-06-05T05:41:20;26.30;99.90
27226;DHT22;14732;51.074;3.788;2023-06-05T05:43:49;27.10;99.90
27226;DHT22;14732;51.074;3.788;2023-06-05T05:46:14;27.50;99.90
27226;DHT22;14732;51.074;3.788;2023-06-05T05:48:40;28.10;99.20
27226;DHT22;14732;51.074;3.788;2023-06-05T05:51:06;28.60;97.20
27226;DHT22;14732;51.074;3.788;2023-06-05T05:53:33;28.30;97.20
27226;DHT22;14732;51.074;3.788;2023-06-05T05:55:59;29.00;95.20
27226;DHT22;14732;51.074;3.788;2023-06-05T05:58:25;29.40;94.80
27226;DHT22;14732;51.074;3.788;2023-06-05T06:00:50;29.20;92.70
27226;DHT22;14732;51.074;3.788;2023-06-05T06:03:17;29.40;92.70
27226;DHT22;14732;51.074;3.788;2023-06-05T06:05:43;30.50;91.40
27226;DHT22;14732;51.074;3.788;2023-06-05T06:08:12;30.80;90.70
27226;DHT22;14732;51.074;3.788;2023-06-05T06:10:38;31.10;87.90
27226;DHT22;14732;51.074;3.788;2023-06-05T06:13:04;31.70;84.30
27226;DHT22;14732;51.074;3.788;2023-06-05T06:15:31;32.10;81.40
27226;DHT22;14732;51.074;3.788;2023-06-05T06:17:57;32.30;79.50
27226;DHT22;14732;51.074;3.788;2023-06-05T06:20:23;32.70;77.70
27226;DHT22;14732;51.074;3.788;2023-06-05T06:22:49;32.90;76.80
27226;DHT22;14732;51.074;3.788;2023-06-05T06:25:14;32.30;75.30
27226;DHT22;14732;51.074;3.788;2023-06-05T06:27:42;32.80;74.90
27226;DHT22;14732;51.074;3.788;2023-06-05T06:30:09;33.30;74.40
27226;DHT22;14732;51.074;3.788;2023-06-05T06:32:35;33.20;72.10
27226;DHT22;14732;51.074;3.788;2023-06-05T06:35:01;33.50;71.50
27226;DHT22;14732;51.074;3.788;2023-06-05T06:37:27;34.10;70.60
27226;DHT22;14732;51.074;3.788;2023-06-05T06:39:53;33.40;69.80
27226;DHT22;14732;51.074;3.788;2023-06-05T06:42:19;32.60;71.40
27226;DHT22;14732;51.074;3.788;2023-06-05T06:44:45;32.40;71.40
27226;DHT22;14732;51.074;3.788;2023-06-05T06:47:10;31.60;71.50
27226;DHT22;14732;51.074;3.788;2023-06-05T06:49:37;30.40;73.30
27226;DHT22;14732;51.074;3.788;2023-06-05T06:52:05;29.70;74.50
27226;DHT22;14732;51.074;3.788;2023-06-05T06:54:31;29.20;77.00
27226;DHT22;14732;51.074;3.788;2023-06-05T06:56:57;28.90;76.90
27226;DHT22;14732;51.074;3.788;2023-06-05T06:59:23;29.40;77.80
27226;DHT22;14732;51.074;3.788;2023-06-05T07:02:09;30.20;76.00
27226;DHT22;14732;51.074;3.788;2023-06-05T07:04:35;29.60;74.80
27226;DHT22;14732;51.074;3.788;2023-06-05T07:07:02;29.30;76.10
27226;DHT22;14732;51.074;3.788;2023-06-05T07:09:28;29.00;76.80
27226;DHT22;14732;51.074;3.788;2023-06-05T07:11:54;27.60;77.50
27226;DHT22;14732;51.074;3.788;2023-06-05T07:14:20;26.50;81.40
27226;DHT22;14732;51.074;3.788;2023-06-05T07:16:45;26.20;83.10
27226;DHT22;14732;51.074;3.788;2023-06-05T07:19:12;26.10;83.70
27226;DHT22;14732;51.074;3.788;2023-06-05T07:21:38;25.70;84.70
27226;DHT22;14732;51.074;3.788;2023-06-05T07:24:05;25.40;85.80
27226;DHT22;14732;51.074;3.788;2023-06-05T07:26:30;25.10;86.90
27226;DHT22;14732;51.074;3.788;2023-06-05T07:28:57;24.80;88.10
27226;DHT22;14732;51.074;3.788;2023-06-05T07:31:23;24.80;88.00
27226;DHT22;14732;51.074;3.788;2023-06-05T07:33:48;24.70;88.80
27226;DHT22;14732;51.074;3.788;2023-06-05T07:36:14;24.80;90.00
27226;DHT22;14732;51.074;3.788;2023-06-05T07:38:40;24.90;89.20
27226;DHT22;14732;51.074;3.788;2023-06-05T07:41:10;24.30;90.70
27226;DHT22;14732;51.074;3.788;2023-06-05T07:43:37;24.30;90.60
27226;DHT22;14732;51.074;3.788;2023-06-05T07:46:05;24.30;90.40
27226;DHT22;14732;51.074;3.788;2023-06-05T07:48:31;24.30;90.40
27226;DHT22;14732;51.074;3.788;2023-06-05T07:50:57;24.20;91.00
27226;DHT22;14732;51.074;3.788;2023-06-05T07:53:22;24.20;91.10
27226;DHT22;14732;51.074;3.788;2023-06-05T07:55:48;23.90;91.70
27226;DHT22;14732;51.074;3.788;2023-06-05T07:58:15;22.80;92.90
27226;DHT22;14732;51.074;3.788;2023-06-05T08:00:42;22.10;94.70
27226;DHT22;14732;51.074;3.788;2023-06-05T08:03:09;22.20;95.70
27226;DHT22;14732;51.074;3.788;2023-06-05T08:05:35;22.20;95.60
27226;DHT22;14732;51.074;3.788;2023-06-05T08:08:01;22.80;95.60
27226;DHT22;14732;51.074;3.788;2023-06-05T08:10:28;22.70;95.50
27226;DHT22;14732;51.074;3.788;2023-06-05T08:12:53;22.70;95.10
27226;DHT22;14732;51.074;3.788;2023-06-05T08:15:19;23.00;96.00
27226;DHT22;14732;51.074;3.788;2023-06-05T08:17:45;23.10;95.10
27226;DHT22;14732;51.074;3.788;2023-06-05T08:20:11;23.50;94.40
27226;DHT22;14732;51.074;3.788;2023-06-05T08:22:36;24.00;93.80
27226;DHT22;14732;51.074;3.788;2023-06-05T08:25:06;24.10;94.30
27226;DHT22;14732;51.074;3.788;2023-06-05T08:27:32;24.70;93.40
27226;DHT22;14732;51.074;3.788;2023-06-05T08:29:58;25.40;92.40
27226;DHT22;14732;51.074;3.788;2023-06-05T08:32:25;26.40;90.90
27226;DHT22;14732;51.074;3.788;2023-06-05T08:34:51;26.80;90.40
27226;DHT22;14732;51.074;3.788;2023-06-05T08:37:16;28.60;86.50
27226;DHT22;14732;51.074;3.788;2023-06-05T08:39:42;29.50;84.10
27226;DHT22;14732;51.074;3.788;2023-06-05T08:42:08;31.50;78.80
27226;DHT22;14732;51.074;3.788;2023-06-05T08:44:37;32.40;75.70
27226;DHT22;14732;51.074;3.788;2023-06-05T08:47:03;34.30;71.00
27226;DHT22;14732;51.074;3.788;2023-06-05T08:49:29;35.60;67.70
27226;DHT22;14732;51.074;3.788;2023-06-05T08:52:03;36.60;63.50
27226;DHT22;14732;51.074;3.788;2023-06-05T08:54:38;38.10;61.40
27226;DHT22;14732;51.074;3.788;2023-06-05T08:57:07;39.80;56.80
27226;DHT22;14732;51.074;3.788;2023-06-05T08:59:33;41.10;54.30
27226;DHT22;14732;51.074;3.788;2023-06-05T09:02:00;41.70;51.80
27226;DHT22;14732;51.074;3.788;2023-06-05T09:04:26;41.90;49.10
27226;DHT22;14732;51.074;3.788;2023-06-05T09:06:58;40.40;49.50
27226;DHT22;14732;51.074;3.788;2023-06-05T09:09:25;41.00;49.40
27226;DHT22;14732;51.074;3.788;2023-06-05T09:12:05;40.80;48.80
27226;DHT22;14732;51.074;3.788;2023-06-05T09:14:31;39.60;48.40
27226;DHT22;14732;51.074;3.788;2023-06-05T09:16:59;39.60;50.20
27226;DHT22;14732;51.074;3.788;2023-06-05T09:19:35;40.00;49.20
27226;DHT22;14732;51.074;3.788;2023-06-05T09:22:01;40.00;49.70
27226;DHT22;14732;51.074;3.788;2023-06-05T09:24:27;39.20;49.30
27226;DHT22;14732;51.074;3.788;2023-06-05T09:26:59;39.10;49.90
27226;DHT22;14732;51.074;3.788;2023-06-05T09:29:32;37.70;51.90
27226;DHT22;14732;51.074;3.788;2023-06-05T09:32:00;36.40;51.70
27226;DHT22;14732;51.074;3.788;2023-06-05T09:34:27;35.50;53.00
27226;DHT22;14732;51.074;3.788;2023-06-05T09:36:55;34.10;54.90
27226;DHT22;14732;51.074;3.788;2023-06-05T09:39:21;32.10;58.30
27226;DHT22;14732;51.074;3.788;2023-06-05T09:41:48;31.20;59.80
27226;DHT22;14732;51.074;3.788;2023-06-05T09:44:15;30.40;61.50
27226;DHT22;14732;51.074;3.788;2023-06-05T09:46:54;29.20;66.00
27226;DHT22;14732;51.074;3.788;2023-06-05T09:52:07;27.40;68.90
27226;DHT22;14732;51.074;3.788;2023-06-05T09:54:36;26.70;70.10
27226;DHT22;14732;51.074;3.788;2023-06-05T09:57:04;26.00;74.00
27226;DHT22;14732;51.074;3.788;2023-06-05T09:59:31;25.80;74.30
27226;DHT22;14732;51.074;3.788;2023-06-05T10:02:02;25.40;76.00
27226;DHT22;14732;51.074;3.788;2023-06-05T10:04:40;25.10;78.40
27226;DHT22;14732;51.074;3.788;2023-06-05T10:07:07;25.30;78.40
27226;DHT22;14732;51.074;3.788;2023-06-05T10:09:33;25.10;78.30
27226;DHT22;14732;51.074;3.788;2023-06-05T10:11:59;24.90;80.60
27226;DHT22;14732;51.074;3.788;2023-06-05T10:14:25;25.10;79.70
27226;DHT22;14732;51.074;3.788;2023-06-05T10:16:52;25.10;80.20
27226;DHT22;14732;51.074;3.788;2023-06-05T10:19:19;25.00;81.80
27226;DHT22;14732;51.074;3.788;2023-06-05T10:21:49;25.00;83.50
27226;DHT22;14732;51.074;3.788;2023-06-05T10:24:15;25.20;80.60
27226;DHT22;14732;51.074;3.788;2023-06-05T10:32:12;25.60;82.60
27226;DHT22;14732;51.074;3.788;2023-06-05T10:34:53;25.20;85.50
27226;DHT22;14732;51.074;3.788;2023-06-05T10:40:25;25.10;84.30
27226;DHT22;14732;51.074;3.788;2023-06-05T10:42:52;25.00;83.10
27226;DHT22;14732;51.074;3.788;2023-06-05T10:45:30;24.80;84.30
27226;DHT22;14732;51.074;3.788;2023-06-05T10:47:57;24.90;86.10
27226;DHT22;14732;51.074;3.788;2023-06-05T10:50:23;24.90;87.00
27226;DHT22;14732;51.074;3.788;2023-06-05T10:52:54;24.90;85.30
27226;DHT22;14732;51.074;3.788;2023-06-05T10:55:21;24.90;87.30
27226;DHT22;14732;51.074;3.788;2023-06-05T10:58:04;24.80;86.20
27226;DHT22;14732;51.074;3.788;2023-06-05T11:00:32;25.00;87.40
27226;DHT22;14732;51.074;3.788;2023-06-05T11:02:59;24.90;87.70
27226;DHT22;14732;51.074;3.788;2023-06-05T11:05:26;24.90;86.00
27226;DHT22;14732;51.074;3.788;2023-06-05T11:08:11;25.20;85.50
27226;DHT22;14732;51.074;3.788;2023-06-05T11:11:05;25.30;84.60
27226;DHT22;14732;51.074;3.788;2023-06-05T11:13:53;25.10;85.30
27226;DHT22;14732;51.074;3.788;2023-06-05T11:16:29;25.30;84.50
27226;DHT22;14732;51.074;3.788;2023-06-05T11:24:29;25.20;85.50
27226;DHT22;14732;51.074;3.788;2023-06-05T11:26:54;25.30;84.20
27226;DHT22;14732;51.074;3.788;2023-06-05T11:29:20;25.30;85.60
27226;DHT22;14732;51.074;3.788;2023-06-05T11:31:48;25.20;84.60
27226;DHT22;14732;51.074;3.788;2023-06-05T11:34:14;24.90;87.40
27226;DHT22;14732;51.074;3.788;2023-06-05T11:36:40;25.30;87.30
27226;DHT22;14732;51.074;3.788;2023-06-05T11:39:06;25.50;85.30
27226;DHT22;14732;51.074;3.788;2023-06-05T11:41:33;25.60;85.70
27226;DHT22;14732;51.074;3.788;2023-06-05T11:43:59;25.80;85.70
27226;DHT22;14732;51.074;3.788;2023-06-05T11:46:42;25.90;82.10
27226;DHT22;14732;51.074;3.788;2023-06-05T11:49:23;26.00;84.00
27226;DHT22;14732;51.074;3.788;2023-06-05T11:51:49;26.10;83.40
27226;DHT22;14732;51.074;3.788;2023-06-05T11:54:29;26.10;84.40
27226;DHT22;14732;51.074;3.788;2023-06-05T11:56:57;26.00;84.40
27226;DHT22;14732;51.074;3.788;2023-06-05T11:59:23;26.10;83.00
27226;DHT22;14732;51.074;3.788;2023-06-05T12:01:50;25.70;81.30
27226;DHT22;14732;51.074;3.788;2023-06-05T12:04:19;25.60;83.20
27226;DHT22;14732;51.074;3.788;2023-06-05T12:06:46;25.50;85.30
27226;DHT22;14732;51.074;3.788;2023-06-05T12:09:13;25.30;85.30
27226;DHT22;14732;51.074;3.788;2023-06-05T12:11:42;25.20;86.10
27226;DHT22;14732;51.074;3.788;2023-06-05T12:14:27;25.00;86.70
27226;DHT22;14732;51.074;3.788;2023-06-05T12:16:53;25.10;88.10
27226;DHT22;14732;51.074;3.788;2023-06-05T12:19:19;25.10;88.60
27226;DHT22;14732;51.074;3.788;2023-06-05T12:21:49;24.80;86.30
27226;DHT22;14732;51.074;3.788;2023-06-05T12:24:26;24.80;88.90
27226;DHT22;14732;51.074;3.788;2023-06-05T12:27:01;25.20;87.40
27226;DHT22;14732;51.074;3.788;2023-06-05T12:29:31;25.30;86.60
27226;DHT22;14732;51.074;3.788;2023-06-05T12:31:58;25.60;82.80
27226;DHT22;14732;51.074;3.788;2023-06-05T12:34:45;25.70;84.90
27226;DHT22;14732;51.074;3.788;2023-06-05T12:37:31;25.80;82.60
27226;DHT22;14732;51.074;3.788;2023-06-05T12:40:01;25.80;85.60
27226;DHT22;14732;51.074;3.788;2023-06-05T12:42:27;25.80;85.70
27226;DHT22;14732;51.074;3.788;2023-06-05T12:44:53;25.60;87.00
27226;DHT22;14732;51.074;3.788;2023-06-05T12:47:19;25.70;86.50
27226;DHT22;14732;51.074;3.788;2023-06-05T12:49:45;25.60;90.00
27226;DHT22;14732;51.074;3.788;2023-06-05T12:52:11;25.80;87.70
27226;DHT22;14732;51.074;3.788;2023-06-05T12:54:37;26.10;86.50
27226;DHT22;14732;51.074;3.788;2023-06-05T12:57:06;25.80;89.20
27226;DHT22;14732;51.074;3.788;2023-06-05T12:59:33;25.80;88.10
27226;DHT22;14732;51.074;3.788;2023-06-05T13:01:59;25.70;87.40
27226;DHT22;14732;51.074;3.788;2023-06-05T13:04:24;25.40;87.80
27226;DHT22;14732;51.074;3.788;2023-06-05T13:06:50;25.40;89.50
27226;DHT22;14732;51.074;3.788;2023-06-05T13:09:16;25.80;87.50
27226;DHT22;14732;51.074;3.788;2023-06-05T13:11:42;25.90;88.80
27226;DHT22;14732;51.074;3.788;2023-06-05T13:14:08;26.10;87.10
27226;DHT22;14732;51.074;3.788;2023-06-05T13:16:33;26.00;86.70
27226;DHT22;14732;51.074;3.788;2023-06-05T13:18:59;25.90;87.90
27226;DHT22;14732;51.074;3.788;2023-06-05T13:21:25;25.90;88.70
27226;DHT22;14732;51.074;3.788;2023-06-05T13:23:51;25.80;90.00
27226;DHT22;14732;51.074;3.788;2023-06-05T13:26:17;25.80;90.10
27226;DHT22;14732;51.074;3.788;2023-06-05T13:28:43;25.80;89.30
27226;DHT22;14732;51.074;3.788;2023-06-05T13:31:12;26.00;87.60
27226;DHT22;14732;51.074;3.788;2023-06-05T13:33:39;25.90;86.80
27226;DHT22;14732;51.074;3.788;2023-06-05T13:36:06;25.90;88.00
27226;DHT22;14732;51.074;3.788;2023-06-05T13:38:32;25.80;88.30
27226;DHT22;14732;51.074;3.788;2023-06-05T13:40:58;25.50;90.30
27226;DHT22;14732;51.074;3.788;2023-06-05T13:43:23;25.60;90.40
27226;DHT22;14732;51.074;3.788;2023-06-05T13:45:49;25.60;90.60
27226;DHT22;14732;51.074;3.788;2023-06-05T13:48:15;25.90;90.10
27226;DHT22;14732;51.074;3.788;2023-06-05T13:50:40;25.80;89.30
27226;DHT22;14732;51.074;3.788;2023-06-05T13:53:07;25.70;89.00
27226;DHT22;14732;51.074;3.788;2023-06-05T13:55:32;25.70;90.00
27226;DHT22;14732;51.074;3.788;2023-06-05T13:57:59;25.80;88.50
27226;DHT22;14732;51.074;3.788;2023-06-05T14:00:30;25.90;90.30
27226;DHT22;14732;51.074;3.788;2023-06-05T14:02:55;25.80;90.10
27226;DHT22;14732;51.074;3.788;2023-06-05T14:05:21;26.10;90.00
27226;DHT22;14732;51.074;3.788;2023-06-05T14:07:47;26.10;89.10
27226;DHT22;14732;51.074;3.788;2023-06-05T14:10:15;25.90;87.60
27226;DHT22;14732;51.074;3.788;2023-06-05T14:12:40;25.70;89.40
27226;DHT22;14732;51.074;3.788;2023-06-05T14:15:06;25.60;90.80
27226;DHT22;14732;51.074;3.788;2023-06-05T14:17:32;25.30;92.00
27226;DHT22;14732;51.074;3.788;2023-06-05T14:19:58;25.30;92.50
27226;DHT22;14732;51.074;3.788;2023-06-05T14:22:23;25.50;92.00
27226;DHT22;14732;51.074;3.788;2023-06-05T14:24:49;25.80;90.20
27226;DHT22;14732;51.074;3.788;2023-06-05T14:27:15;25.60;90.90
27226;DHT22;14732;51.074;3.788;2023-06-05T14:29:42;25.50;92.00
27226;DHT22;14732;51.074;3.788;2023-06-05T14:32:07;25.40;91.60
27226;DHT22;14732;51.074;3.788;2023-06-05T14:34:33;25.20;92.40
27226;DHT22;14732;51.074;3.788;2023-06-05T14:36:59;25.30;91.90
27226;DHT22;14732;51.074;3.788;2023-06-05T14:39:24;25.30;91.10
27226;DHT22;14732;51.074;3.788;2023-06-05T14:41:50;25.50;91.90
27226;DHT22;14732;51.074;3.788;2023-06-05T14:44:16;25.80;91.20
27226;DHT22;14732;51.074;3.788;2023-06-05T14:46:41;25.70;90.50
27226;DHT22;14732;51.074;3.788;2023-06-05T14:49:07;25.40;91.50
27226;DHT22;14732;51.074;3.788;2023-06-05T14:51:33;25.50;91.90
27226;DHT22;14732;51.074;3.788;2023-06-05T14:53:58;25.20;91.90
27226;DHT22;14732;51.074;3.788;2023-06-05T14:56:24;25.00;92.80
27226;DHT22;14732;51.074;3.788;2023-06-05T14:58:50;25.20;92.10
27226;DHT22;14732;51.074;3.788;2023-06-05T15:01:17;25.20;92.40
27226;DHT22;14732;51.074;3.788;2023-06-05T15:03:44;25.10;93.00
27226;DHT22;14732;51.074;3.788;2023-06-05T15:06:10;25.00;92.50
27226;DHT22;14732;51.074;3.788;2023-06-05T15:08:36;24.80;93.60
27226;DHT22;14732;51.074;3.788;2023-06-05T15:11:01;24.90;92.70
27226;DHT22;14732;51.074;3.788;2023-06-05T15:13:27;24.90;91.60
27226;DHT22;14732;51.074;3.788;2023-06-05T15:15:53;24.90;92.90
27226;DHT22;14732;51.074;3.788;2023-06-05T15:18:19;24.90;92.80
27226;DHT22;14732;51.074;3.788;2023-06-05T15:20:44;25.00;92.80
27226;DHT22;14732;51.074;3.788;2023-06-05T15:23:10;24.70;93.40
27226;DHT22;14732;51.074;3.788;2023-06-05T15:25:35;24.80;93.00
27226;DHT22;14732;51.074;3.788;2023-06-05T15:28:02;24.80;94.00
27226;DHT22;14732;51.074;3.788;2023-06-05T15:30:27;25.00;92.80
27226;DHT22;14732;51.074;3.788;2023-06-05T15:32:53;24.90;93.60
27226;DHT22;14732;51.074;3.788;2023-06-05T15:35:19;24.90;93.40
27226;DHT22;14732;51.074;3.788;2023-06-05T15:37:44;24.70;94.10
27226;DHT22;14732;51.074;3.788;2023-06-05T15:40:10;24.60;93.60
27226;DHT22;14732;51.074;3.788;2023-06-05T15:42:37;24.50;94.70
27226;DHT22;14732;51.074;3.788;2023-06-05T15:47:32;24.10;96.30
27226;DHT22;14732;51.074;3.788;2023-06-05T15:49:59;24.10;95.10
27226;DHT22;14732;51.074;3.788;2023-06-05T15:52:25;24.00;95.70
27226;DHT22;14732;51.074;3.788;2023-06-05T15:54:54;24.10;95.40